Time;durP1;ratioP1;P1;durP2;ratioP2;P2;SDS_P1;SDS_P2;PMS_P1;PMS_P2;Temp;Humidity;BMP_temperature;BMP_pressure;BME280_temperature;BME280_humidity;BME280_pressure;Samples;Min_cycle;Max_cycle;Signal;HPM_P1;HPM_P2
2021/12/19 00:01:03;;;;;;;39.20;21.98;;;;;;;;;;4960469;28;20023;-88
2021/12/19 00:03:51;;;;;;;38.90;21.48;;;;;;;;;;4960541;29;20050;-88
2021/12/19 00:09:02;;;;;;;38.90;20.20;;;;;;;;;;4972048;28;20380;-88
2021/12/19 00:11:29;;;;;;;31.85;19.30;;;;;;;;;;4979378;28;20023;-88
2021/12/19 00:13:56;;;;;;;34.10;19.52;;;;;;;;;;4979426;28;20416;-88
2021/12/19 00:16:22;;;;;;;33.47;18.38;;;;;;;;;;4978854;28;20406;-87
2021/12/19 00:22:14;;;;;;;36.35;18.88;;;;;;;;;;4964302;28;20118;-87
2021/12/19 00:24:40;;;;;;;34.08;19.67;;;;;;;;;;4979268;28;20027;-88
2021/12/19 00:27:07;;;;;;;35.95;20.15;;;;;;;;;;4975693;28;20022;-87
2021/12/19 00:29:33;;;;;;;31.52;18.42;;;;;;;;;;4962263;28;20424;-88
2021/12/19 00:31:59;;;;;;;38.47;19.42;;;;;;;;;;4979114;28;20417;-88
2021/12/19 00:34:26;;;;;;;38.55;19.77;;;;;;;;;;4962355;28;20069;-90
2021/12/19 00:36:52;;;;;;;39.95;20.25;;;;;;;;;;4979278;28;20409;-89
2021/12/19 00:39:18;;;;;;;35.05;19.67;;;;;;;;;;4979092;28;20031;-89
2021/12/19 00:41:44;;;;;;;33.40;19.98;;;;;;;;;;4978732;28;20089;-89
2021/12/19 00:44:12;;;;;;;30.63;18.35;;;;;;;;;;4967335;28;20035;-89
2021/12/19 00:46:50;;;;;;;32.58;18.33;;;;;;;;;;4979003;28;20035;-89
2021/12/19 00:52:20;;;;;;;39.28;19.52;;;;;;;;;;4979321;28;20049;-89
2021/12/19 00:54:46;;;;;;;32.00;17.92;;;;;;;;;;4960591;28;20027;-89
2021/12/19 00:57:12;;;;;;;29.45;17.20;;;;;;;;;;4942022;29;20028;-89
2021/12/19 00:59:38;;;;;;;32.47;17.50;;;;;;;;;;4959448;29;20028;-88
2021/12/19 01:02:04;;;;;;;33.80;17.20;;;;;;;;;;4946023;28;20345;-88
2021/12/19 01:04:30;;;;;;;29.45;16.85;;;;;;;;;;4978830;28;20030;-89
2021/12/19 01:07:00;;;;;;;30.17;16.83;;;;;;;;;;4961339;28;20129;-88
2021/12/19 01:09:26;;;;;;;28.50;16.23;;;;;;;;;;4978617;28;20329;-88
2021/12/19 01:11:52;;;;;;;26.23;16.92;;;;;;;;;;4961762;28;20464;-87
2021/12/19 01:14:18;;;;;;;27.05;16.75;;;;;;;;;;4961703;28;20100;-89
2021/12/19 01:16:45;;;;;;;29.77;15.75;;;;;;;;;;4961637;28;20429;-89
2021/12/19 01:19:11;;;;;;;26.90;15.90;;;;;;;;;;4943315;29;20035;-88
2021/12/19 01:21:37;;;;;;;24.70;15.65;;;;;;;;;;4959685;29;20024;-88
2021/12/19 01:24:03;;;;;;;24.15;15.65;;;;;;;;;;4942282;29;20039;-88
2021/12/19 01:26:30;;;;;;;24.52;14.88;;;;;;;;;;4942325;29;20059;-88
2021/12/19 01:28:56;;;;;;;23.90;14.10;;;;;;;;;;4959526;29;20295;-89
2021/12/19 01:31:22;;;;;;;27.83;14.75;;;;;;;;;;4959455;29;20318;-88
2021/12/19 01:33:48;;;;;;;29.92;15.15;;;;;;;;;;4942807;29;20032;-88
2021/12/19 01:36:14;;;;;;;22.35;13.77;;;;;;;;;;4942440;29;20027;-88
2021/12/19 01:38:41;;;;;;;23.10;13.35;;;;;;;;;;4961095;28;20092;-88
2021/12/19 01:41:07;;;;;;;26.15;14.48;;;;;;;;;;4963028;29;20039;-89
2021/12/19 01:43:33;;;;;;;24.40;13.57;;;;;;;;;;4963187;29;20030;-88
2021/12/19 01:45:59;;;;;;;20.23;13.27;;;;;;;;;;4963044;29;20035;-87
2021/12/19 01:48:26;;;;;;;21.25;13.48;;;;;;;;;;4963015;29;20317;-87
2021/12/19 01:54:26;;;;;;;24.00;13.23;;;;;;;;;;4982194;28;20106;-88
2021/12/19 01:56:52;;;;;;;22.95;12.70;;;;;;;;;;4982022;28;20022;-88
2021/12/19 01:59:19;;;;;;;24.95;11.60;;;;;;;;;;4976784;28;20310;-88
2021/12/19 02:01:47;;;;;;;22.50;12.65;;;;;;;;;;4962271;29;20019;-89
2021/12/19 02:04:13;;;;;;;22.42;13.13;;;;;;;;;;4962295;29;20114;-89
2021/12/19 02:06:40;;;;;;;26.65;14.20;;;;;;;;;;4962619;29;20023;-89
2021/12/19 02:09:07;;;;;;;24.35;12.38;;;;;;;;;;4963815;28;20031;-90
2021/12/19 02:11:34;;;;;;;22.85;13.10;;;;;;;;;;4945509;29;20070;-89
2021/12/19 02:14:01;;;;;;;23.30;12.52;;;;;;;;;;4945376;29;20038;-89
2021/12/19 02:16:27;;;;;;;21.38;13.00;;;;;;;;;;4945667;29;20291;-89
2021/12/19 02:21:56;;;;;;;25.88;14.32;;;;;;;;;;4962786;29;20038;-90
2021/12/19 02:24:22;;;;;;;24.50;13.30;;;;;;;;;;4974414;28;20057;-90
2021/12/19 02:26:48;;;;;;;22.55;13.63;;;;;;;;;;4964026;28;20034;-87
2021/12/19 02:29:14;;;;;;;22.63;14.23;;;;;;;;;;4981422;28;20109;-89
2021/12/19 02:31:41;;;;;;;25.50;14.52;;;;;;;;;;4964210;28;20018;-89
2021/12/19 02:34:47;;;;;;;25.10;13.95;;;;;;;;;;4963845;28;20046;-89
2021/12/19 02:37:47;;;;;;;23.63;13.27;;;;;;;;;;4963892;28;20019;-88
2021/12/19 02:48:14;;;;;;;23.02;13.73;;;;;;;;;;4962065;29;20041;-89
2021/12/19 02:50:47;;;;;;;22.85;13.18;;;;;;;;;;4962014;28;20436;-88
2021/12/19 02:53:13;;;;;;;22.85;12.57;;;;;;;;;;4961947;29;20031;-88
2021/12/19 02:55:41;;;;;;;22.27;13.48;;;;;;;;;;4944180;29;20032;-90
2021/12/19 02:58:07;;;;;;;21.65;13.07;;;;;;;;;;4944662;29;20019;-89
2021/12/19 03:00:34;;;;;;;20.33;12.93;;;;;;;;;;4961817;29;20023;-90
2021/12/19 03:03:00;;;;;;;20.80;13.40;;;;;;;;;;4944765;29;20122;-89
2021/12/19 03:08:31;;;;;;;22.77;14.40;;;;;;;;;;4961550;29;20034;-90
2021/12/19 03:18:43;;;;;;;21.95;13.75;;;;;;;;;;4961512;29;20038;-89
2021/12/19 03:21:12;;;;;;;20.15;13.43;;;;;;;;;;4979755;28;20031;-89
2021/12/19 03:23:39;;;;;;;20.58;13.80;;;;;;;;;;4963097;28;20042;-89
2021/12/19 03:26:05;;;;;;;24.10;14.35;;;;;;;;;;4962870;28;20039;-89
2021/12/19 03:28:32;;;;;;;23.40;14.18;;;;;;;;;;4980669;28;20042;-89
2021/12/19 03:30:58;;;;;;;23.75;13.70;;;;;;;;;;4980654;28;20018;-89
2021/12/19 03:33:24;;;;;;;21.95;13.57;;;;;;;;;;4980102;28;20023;-88
2021/12/19 03:38:58;;;;;;;19.08;13.18;;;;;;;;;;4980555;28;20034;-88
2021/12/19 03:41:33;;;;;;;20.77;12.93;;;;;;;;;;4980205;28;20420;-89
2021/12/19 03:43:59;;;;;;;25.25;13.20;;;;;;;;;;4980065;28;20397;-88
2021/12/19 03:46:25;;;;;;;20.33;13.05;;;;;;;;;;4979888;28;20038;-89
2021/12/19 03:48:51;;;;;;;19.45;12.50;;;;;;;;;;4980016;28;20023;-89
2021/12/19 03:51:17;;;;;;;28.85;14.70;;;;;;;;;;4964929;28;20050;-89
2021/12/19 03:53:43;;;;;;;30.10;16.52;;;;;;;;;;4960765;29;20027;-89
2021/12/19 03:56:09;;;;;;;29.33;17.27;;;;;;;;;;4943689;29;20101;-89
2021/12/19 03:58:35;;;;;;;28.70;15.88;;;;;;;;;;4960851;29;20023;-89
2021/12/19 04:01:05;;;;;;;26.63;15.73;;;;;;;;;;4943257;28;20027;-88
2021/12/19 04:03:31;;;;;;;25.70;14.75;;;;;;;;;;4960292;29;20434;-90
2021/12/19 04:05:57;;;;;;;24.67;15.38;;;;;;;;;;4951422;28;20043;-88
2021/12/19 04:08:24;;;;;;;26.73;15.18;;;;;;;;;;4979976;28;20023;-88
2021/12/19 04:10:51;;;;;;;27.48;14.18;;;;;;;;;;4979374;28;20146;-88
2021/12/19 04:13:18;;;;;;;24.75;14.70;;;;;;;;;;4962635;28;20043;-89
2021/12/19 04:15:44;;;;;;;25.67;15.38;;;;;;;;;;4962603;28;20060;-88
2021/12/19 04:18:10;;;;;;;27.45;18.52;;;;;;;;;;4979801;28;20023;-89
2021/12/19 04:23:40;;;;;;;25.23;14.68;;;;;;;;;;4959994;29;20162;-89
2021/12/19 04:26:07;;;;;;;21.98;13.98;;;;;;;;;;4960366;29;20031;-89
2021/12/19 04:28:33;;;;;;;23.13;14.45;;;;;;;;;;4960391;28;20100;-88
2021/12/19 04:31:00;;;;;;;23.00;14.45;;;;;;;;;;4943006;29;20035;-89
2021/12/19 04:33:28;;;;;;;24.63;14.05;;;;;;;;;;4943046;29;20147;-88
2021/12/19 04:50:58;;;;;;;20.20;14.05;;;;;;;;;;4979362;28;20119;-89
2021/12/19 04:57:51;;;;;;;23.98;14.45;;;;;;;;;;4978717;28;20026;-90
2021/12/19 05:00:22;;;;;;;26.08;13.80;;;;;;;;;;4976377;28;20409;-89
2021/12/19 05:02:57;;;;;;;22.25;13.73;;;;;;;;;;4942717;29;20039;-88
2021/12/19 05:16:22;;;;;;;27.77;15.07;;;;;;;;;;4983052;28;20061;-89
2021/12/19 05:18:50;;;;;;;32.45;17.08;;;;;;;;;;4982800;28;20027;-90
2021/12/19 05:26:47;;;;;;;31.20;19.38;;;;;;;;;;4982813;28;20035;-90
2021/12/19 05:29:13;;;;;;;29.13;19.05;;;;;;;;;;4982626;28;20035;-88
2021/12/19 05:31:39;;;;;;;33.20;18.83;;;;;;;;;;4982409;28;20125;-87
2021/12/19 05:34:05;;;;;;;27.45;16.98;;;;;;;;;;4982664;28;20027;-88
2021/12/19 05:47:36;;;;;;;;;;;;;;;;;;4963647;29;20039;-91
2021/12/19 05:50:02;;;;;;;25.73;16.27;;;;;;;;;;4963193;29;19913;-90
2021/12/19 05:52:28;;;;;;;27.08;16.55;;;;;;;;;;4963940;28;20031;-89
2021/12/19 05:54:54;;;;;;;25.45;16.95;;;;;;;;;;4963093;29;20027;-90
2021/12/19 05:57:20;;;;;;;27.38;16.67;;;;;;;;;;4945806;29;20028;-90
2021/12/19 05:59:46;;;;;;;28.00;18.15;;;;;;;;;;4962668;29;20026;-89
2021/12/19 06:02:12;;;;;;;29.08;17.50;;;;;;;;;;4963039;29;20140;-89
2021/12/19 06:04:45;;;;;;;28.48;17.13;;;;;;;;;;4945688;29;20053;-90
2021/12/19 06:07:11;;;;;;;;;;;;;;;;;;4963017;29;20468;-89
2021/12/19 06:09:37;;;;;;;26.38;16.88;;;;;;;;;;4976554;28;19906;-89
2021/12/19 06:12:03;;;;;;;28.77;16.90;;;;;;;;;;4964685;28;20035;-89
2021/12/19 06:14:32;;;;;;;31.25;17.35;;;;;;;;;;4981222;28;20086;-89
2021/12/19 06:16:59;;;;;;;28.48;18.25;;;;;;;;;;4981046;28;20117;-89
2021/12/19 06:19:25;;;;;;;30.67;17.27;;;;;;;;;;4981501;28;20413;-87
2021/12/19 06:21:51;;;;;;;38.13;20.85;;;;;;;;;;4964253;28;20031;-90
2021/12/19 06:24:17;;;;;;;39.65;21.70;;;;;;;;;;4980418;28;20345;-89
2021/12/19 06:26:43;;;;;;;57.00;30.13;;;;;;;;;;4982002;28;20106;-89
2021/12/19 06:29:09;;;;;;;61.60;30.58;;;;;;;;;;4963943;28;20042;-89
2021/12/19 06:31:35;;;;;;;66.68;33.75;;;;;;;;;;4947970;29;20058;-90
2021/12/19 06:34:01;;;;;;;58.47;30.73;;;;;;;;;;4962212;29;20112;-89
2021/12/19 06:39:31;;;;;;;33.28;19.02;;;;;;;;;;4962078;29;20436;-90
2021/12/19 06:41:57;;;;;;;33.22;18.60;;;;;;;;;;4961817;29;20395;-89
2021/12/19 06:44:23;;;;;;;32.15;19.17;;;;;;;;;;4962218;29;20066;-89
2021/12/19 06:46:49;;;;;;;32.72;18.27;;;;;;;;;;4961937;29;20027;-90
2021/12/19 06:49:15;;;;;;;32.40;18.05;;;;;;;;;;4961824;29;20050;-90
2021/12/19 06:54:44;;;;;;;26.67;17.23;;;;;;;;;;4981331;28;20049;-89
2021/12/19 06:57:11;;;;;;;27.13;16.70;;;;;;;;;;4950836;29;20030;-89
2021/12/19 06:59:37;;;;;;;29.08;17.17;;;;;;;;;;4961837;29;20070;-88
2021/12/19 07:02:03;;;;;;;29.90;17.90;;;;;;;;;;4944641;29;20040;-87
2021/12/19 07:04:29;;;;;;;27.38;17.15;;;;;;;;;;4961555;29;20030;-89
2021/12/19 07:09:59;;;;;;;47.90;29.67;;;;;;;;;;4962735;28;20034;-92
2021/12/19 07:12:26;;;;;;;58.03;34.40;;;;;;;;;;4944410;28;20059;-85
2021/12/19 07:14:53;;;;;;;58.38;32.17;;;;;;;;;;4959102;29;20035;-89
2021/12/19 07:17:20;;;;;;;60.88;34.90;;;;;;;;;;4960713;29;20039;-90
2021/12/19 07:19:46;;;;;;;43.35;26.70;;;;;;;;;;4961340;29;20030;-89
2021/12/19 07:22:12;;;;;;;38.95;22.98;;;;;;;;;;4944229;29;20032;-90
2021/12/19 07:24:38;;;;;;;35.78;23.05;;;;;;;;;;4959596;28;20157;-89
2021/12/19 07:27:05;;;;;;;34.60;21.65;;;;;;;;;;4980727;28;20357;-88
2021/12/19 07:29:31;;;;;;;27.92;17.20;;;;;;;;;;4978890;28;20035;-88
2021/12/19 07:31:57;;;;;;;32.00;20.10;;;;;;;;;;4944317;29;20035;-87
2021/12/19 07:34:30;;;;;;;30.83;18.98;;;;;;;;;;4961032;29;20027;-89
2021/12/19 07:40:11;;;;;;;34.20;19.88;;;;;;;;;;4972934;28;20034;-89
2021/12/19 07:42:38;;;;;;;32.03;18.17;;;;;;;;;;4943990;29;20432;-89
2021/12/19 07:45:05;;;;;;;28.08;17.10;;;;;;;;;;4961026;29;20031;-87
2021/12/19 07:47:31;;;;;;;30.48;17.95;;;;;;;;;;4964733;28;20062;-87
2021/12/19 07:49:57;;;;;;;29.48;16.27;;;;;;;;;;4969056;28;20023;-87
2021/12/19 07:52:23;;;;;;;32.83;19.92;;;;;;;;;;4979838;28;20050;-87
2021/12/19 07:54:49;;;;;;;34.08;18.67;;;;;;;;;;4977232;28;20432;-88
2021/12/19 07:57:15;;;;;;;34.92;19.33;;;;;;;;;;4958261;28;20035;-87
2021/12/19 07:59:41;;;;;;;46.58;24.08;;;;;;;;;;4998795;28;20034;-87
2021/12/19 08:02:07;;;;;;;47.67;24.27;;;;;;;;;;4983850;28;20106;-85
2021/12/19 08:04:33;;;;;;;46.58;24.83;;;;;;;;;;4949864;28;20081;-87
2021/12/19 08:06:59;;;;;;;46.03;25.42;;;;;;;;;;4962977;28;20031;-87
2021/12/19 08:09:37;;;;;;;45.58;24.42;;;;;;;;;;4979651;28;20118;-87
2021/12/19 08:12:07;;;;;;;38.92;20.67;;;;;;;;;;4979451;28;20022;-86
2021/12/19 08:14:33;;;;;;;39.60;21.48;;;;;;;;;;4979614;28;20026;-87
2021/12/19 08:16:59;;;;;;;39.33;21.15;;;;;;;;;;4962201;28;20035;-87
2021/12/19 08:19:25;;;;;;;44.17;23.13;;;;;;;;;;4979561;28;20023;-88
2021/12/19 08:21:53;;;;;;;41.28;21.73;;;;;;;;;;4962292;28;20033;-87
2021/12/19 08:24:19;;;;;;;43.83;23.00;;;;;;;;;;4961814;28;20043;-87
2021/12/19 08:26:47;;;;;;;44.10;22.75;;;;;;;;;;4979497;28;20057;-87
2021/12/19 08:29:13;;;;;;;37.20;20.40;;;;;;;;;;4979531;28;20114;-87
2021/12/19 08:31:40;;;;;;;40.15;20.35;;;;;;;;;;4979319;28;20026;-87
2021/12/19 08:34:06;;;;;;;42.72;23.52;;;;;;;;;;4962112;28;20078;-87
2021/12/19 08:36:32;;;;;;;43.88;23.45;;;;;;;;;;4979117;28;20098;-87
2021/12/19 08:38:58;;;;;;;52.30;27.13;;;;;;;;;;4979407;28;20027;-87
2021/12/19 08:41:25;;;;;;;69.03;34.90;;;;;;;;;;4979224;28;20081;-87
2021/12/19 08:43:51;;;;;;;66.80;34.67;;;;;;;;;;4979322;28;20030;-87
2021/12/19 08:46:17;;;;;;;53.72;29.23;;;;;;;;;;4978929;28;20034;-86
2021/12/19 08:48:43;;;;;;;45.50;25.73;;;;;;;;;;4978860;28;20030;-87
2021/12/19 08:51:09;;;;;;;50.25;25.65;;;;;;;;;;4978894;28;20027;-87
2021/12/19 08:53:36;;;;;;;47.50;26.27;;;;;;;;;;4978943;28;20042;-87
2021/12/19 08:56:02;;;;;;;51.38;27.25;;;;;;;;;;4979164;28;20026;-87
2021/12/19 08:58:29;;;;;;;43.45;24.95;;;;;;;;;;4978896;28;20031;-86
2021/12/19 09:01:00;;;;;;;47.60;23.15;;;;;;;;;;4979148;28;20023;-87
2021/12/19 09:03:27;;;;;;;37.72;21.95;;;;;;;;;;4961653;28;20035;-86
2021/12/19 09:05:53;;;;;;;47.33;23.58;;;;;;;;;;4978814;28;20073;-87
2021/12/19 09:08:19;;;;;;;45.70;25.15;;;;;;;;;;4961443;28;20030;-88
2021/12/19 09:10:45;;;;;;;46.83;25.52;;;;;;;;;;4978683;28;20417;-87
2021/12/19 09:13:11;;;;;;;55.45;29.08;;;;;;;;;;4978742;28;20059;-87
2021/12/19 09:15:37;;;;;;;53.40;29.30;;;;;;;;;;4978525;28;20027;-87
2021/12/19 09:18:03;;;;;;;59.55;28.83;;;;;;;;;;4961726;28;20330;-90
2021/12/19 09:20:29;;;;;;;54.03;28.38;;;;;;;;;;4961195;28;20034;-87
2021/12/19 09:22:55;;;;;;;62.22;30.38;;;;;;;;;;4978701;28;20058;-87
2021/12/19 09:25:22;;;;;;;50.50;27.33;;;;;;;;;;4979019;28;20045;-87
2021/12/19 09:27:48;;;;;;;45.95;23.33;;;;;;;;;;4961171;28;20050;-87
2021/12/19 09:30:15;;;;;;;40.70;22.63;;;;;;;;;;4945619;28;20034;-87
2021/12/19 09:32:41;;;;;;;44.88;23.48;;;;;;;;;;4978263;28;20037;-87
2021/12/19 09:35:07;;;;;;;49.33;25.45;;;;;;;;;;4978530;28;20031;-87
2021/12/19 09:37:36;;;;;;;47.22;25.52;;;;;;;;;;4978203;28;20030;-87
2021/12/19 09:40:09;;;;;;;46.10;26.75;;;;;;;;;;4961021;28;20125;-87
2021/12/19 09:42:36;;;;;;;;;;;;;;;;;;4978911;28;20037;-87
2021/12/19 09:45:04;;;;;;;47.53;25.58;;;;;;;;;;4978585;28;19930;-87
2021/12/19 09:47:30;;;;;;;38.97;22.23;;;;;;;;;;4978646;28;20058;-86
2021/12/19 09:49:57;;;;;;;39.47;23.25;;;;;;;;;;4978692;28;20043;-87
2021/12/19 09:52:24;;;;;;;38.28;22.13;;;;;;;;;;4978240;28;20027;-86
2021/12/19 09:54:50;;;;;;;40.72;22.33;;;;;;;;;;4978385;28;20030;-87
2021/12/19 09:57:16;;;;;;;38.95;22.45;;;;;;;;;;4960959;28;20030;-86
2021/12/19 09:59:43;;;;;;;44.58;27.30;;;;;;;;;;4979057;28;20130;-87
2021/12/19 10:02:09;;;;;;;53.70;27.92;;;;;;;;;;4964605;28;20031;-86
2021/12/19 10:04:37;;;;;;;55.58;29.73;;;;;;;;;;4981793;28;20026;-86
2021/12/19 10:07:14;;;;;;;51.08;24.58;;;;;;;;;;4981825;28;20082;-86
2021/12/19 10:09:50;;;;;;;46.53;25.00;;;;;;;;;;4982005;28;20047;-86
2021/12/19 10:14:59;;;;;;;;;;;;;;;;;;4982126;28;20027;-87
2021/12/19 10:17:25;;;;;;;49.88;25.08;;;;;;;;;;4978708;28;19921;-86
2021/12/19 10:19:56;;;;;;;48.90;27.20;;;;;;;;;;4972136;28;20406;-86
2021/12/19 10:22:36;;;;;;;60.70;30.13;;;;;;;;;;4964156;28;20027;-86
2021/12/19 10:25:08;;;;;;;38.38;23.77;;;;;;;;;;4981358;28;20050;-85
2021/12/19 10:27:36;;;;;;;56.28;29.63;;;;;;;;;;4981455;28;20495;-89
2021/12/19 10:30:04;;;;;;;37.42;20.80;;;;;;;;;;4981537;28;20023;-85
2021/12/19 10:32:30;;;;;;;38.45;19.77;;;;;;;;;;4988916;28;20037;-84
2021/12/19 10:35:15;;;;;;;33.15;19.15;;;;;;;;;;4981173;28;20023;-84
2021/12/19 10:37:41;;;;;;;31.20;17.90;;;;;;;;;;4973423;28;20118;-85
2021/12/19 10:40:08;;;;;;;29.60;16.75;;;;;;;;;;4981310;28;20023;-90
2021/12/19 10:42:44;;;;;;;33.10;17.60;;;;;;;;;;4957968;28;20509;-89
2021/12/19 10:48:08;;;;;;;22.20;14.35;;;;;;;;;;4962199;29;20054;-89
2021/12/19 10:54:00;;;;;;;25.50;15.85;;;;;;;;;;4976208;28;20058;-89
2021/12/19 10:56:34;;;;;;;21.35;14.30;;;;;;;;;;4961789;29;20106;-88
2021/12/19 10:59:02;;;;;;;23.77;14.93;;;;;;;;;;4978438;28;20038;-89
2021/12/19 11:01:35;;;;;;;24.63;14.88;;;;;;;;;;4977261;28;20015;-88
2021/12/19 11:04:07;;;;;;;22.98;13.52;;;;;;;;;;4944518;29;20433;-88
2021/12/19 11:09:55;;;;;;;27.10;13.43;;;;;;;;;;4961395;29;20074;-90
2021/12/19 11:12:21;;;;;;;37.60;18.05;;;;;;;;;;4960059;28;20043;-90
2021/12/19 11:14:49;;;;;;;19.13;12.45;;;;;;;;;;4966170;28;20482;-89
2021/12/19 11:17:20;;;;;;;27.25;14.15;;;;;;;;;;4975465;28;20050;-89
2021/12/19 11:19:47;;;;;;;24.00;13.38;;;;;;;;;;4980812;28;20113;-90
2021/12/19 11:22:32;;;;;;;29.83;17.48;;;;;;;;;;4962741;28;20034;-90
2021/12/19 11:25:00;;;;;;;27.45;16.08;;;;;;;;;;4942004;29;20055;-89
2021/12/19 11:27:27;;;;;;;29.77;16.80;;;;;;;;;;4941860;29;20075;-89
2021/12/19 11:29:54;;;;;;;27.02;15.77;;;;;;;;;;4937649;29;20029;-88
2021/12/19 11:32:23;;;;;;;36.28;17.13;;;;;;;;;;4950544;29;20063;-88
2021/12/19 11:34:53;;;;;;;29.70;15.07;;;;;;;;;;4942119;29;20071;-90
2021/12/19 11:37:43;;;;;;;34.65;16.48;;;;;;;;;;4941755;29;20051;-88
2021/12/19 11:40:10;;;;;;;15.82;10.95;;;;;;;;;;4941812;29;20043;-89
2021/12/19 11:42:40;;;;;;;16.80;10.50;;;;;;;;;;4940086;29;20036;-89
2021/12/19 11:45:31;;;;;;;29.08;14.27;;;;;;;;;;4940864;29;20024;-89
2021/12/19 11:54:11;;;;;;;43.40;21.58;;;;;;;;;;4945156;29;20114;-88
2021/12/19 11:56:37;;;;;;;23.50;13.30;;;;;;;;;;4941271;29;20028;-89
2021/12/19 11:59:17;;;;;;;24.42;12.93;;;;;;;;;;4941600;29;20023;-89
2021/12/19 12:01:44;;;;;;;21.05;11.65;;;;;;;;;;4940467;29;20032;-88
2021/12/19 12:04:14;;;;;;;18.92;11.45;;;;;;;;;;4939988;29;20035;-88
2021/12/19 12:09:55;;;;;;;21.77;11.45;;;;;;;;;;4941524;29;20535;-91
2021/12/19 12:12:25;;;;;;;28.10;15.65;;;;;;;;;;4941320;29;20062;-89
2021/12/19 12:14:53;;;;;;;43.00;25.30;;;;;;;;;;4940397;29;20476;-90
2021/12/19 12:17:23;;;;;;;25.15;15.25;;;;;;;;;;4921108;29;20024;-89
2021/12/19 12:19:51;;;;;;;17.70;12.40;;;;;;;;;;4935853;29;20122;-88
2021/12/19 12:22:44;;;;;;;20.98;12.10;;;;;;;;;;4939726;29;20034;-90
2021/12/19 12:25:11;;;;;;;15.82;9.27;;;;;;;;;;4936029;29;20063;-89
2021/12/19 12:28:03;;;;;;;16.25;9.73;;;;;;;;;;4933620;29;20461;-89
2021/12/19 12:30:31;;;;;;;18.00;10.77;;;;;;;;;;4941236;29;20043;-90
2021/12/19 12:33:00;;;;;;;19.25;12.23;;;;;;;;;;4939643;29;20118;-88
2021/12/19 12:35:28;;;;;;;46.58;21.60;;;;;;;;;;4940809;29;20028;-89
2021/12/19 12:38:13;;;;;;;19.05;11.80;;;;;;;;;;4939689;29;20028;-89
2021/12/19 12:41:07;;;;;;;20.38;11.48;;;;;;;;;;4940412;29;20452;-89
2021/12/19 12:43:34;;;;;;;25.95;12.90;;;;;;;;;;4922913;29;20032;-90
2021/12/19 12:46:02;;;;;;;30.10;14.00;;;;;;;;;;4935220;29;20027;-89
2021/12/19 12:48:54;;;;;;;29.65;13.75;;;;;;;;;;4940506;29;20478;-88
2021/12/19 12:54:27;;;;;;;29.63;13.05;;;;;;;;;;4921597;29;20043;-89
2021/12/19 12:56:57;;;;;;;14.70;9.23;;;;;;;;;;4937213;29;20054;-88
2021/12/19 12:59:25;;;;;;;29.30;12.80;;;;;;;;;;4937588;29;20027;-88
2021/12/19 13:04:36;;;;;;;14.30;9.70;;;;;;;;;;4947130;29;20055;-88
2021/12/19 13:07:09;;;;;;;22.45;11.30;;;;;;;;;;4940536;29;20095;-88
2021/12/19 13:09:46;;;;;;;20.45;11.75;;;;;;;;;;4937447;29;20103;-89
2021/12/19 13:12:32;;;;;;;47.67;21.52;;;;;;;;;;4920417;29;20411;-89
2021/12/19 13:14:59;;;;;;;18.30;11.00;;;;;;;;;;4937425;29;20019;-89
2021/12/19 13:17:27;;;;;;;19.33;13.32;;;;;;;;;;4938229;29;20438;-89
2021/12/19 13:20:02;;;;;;;21.67;13.45;;;;;;;;;;4939335;29;20333;-89
2021/12/19 13:22:35;;;;;;;18.98;12.52;;;;;;;;;;4935439;29;20055;-89
2021/12/19 13:25:08;;;;;;;29.67;17.45;;;;;;;;;;4972178;28;20047;-89
2021/12/19 13:27:36;;;;;;;22.95;15.23;;;;;;;;;;4978654;28;20035;-89
2021/12/19 13:30:02;;;;;;;32.22;19.83;;;;;;;;;;4949401;29;20047;-88
2021/12/19 13:32:51;;;;;;;51.53;25.70;;;;;;;;;;4959055;29;20074;-88
2021/12/19 13:35:20;;;;;;;33.03;20.55;;;;;;;;;;4899638;29;20039;-87
2021/12/19 13:37:50;;;;;;;42.45;24.20;;;;;;;;;;4886961;29;20435;-87
2021/12/19 13:40:16;;;;;;;43.92;25.17;;;;;;;;;;4903645;29;20033;-87
2021/12/19 13:42:47;;;;;;;34.08;20.95;;;;;;;;;;4904306;29;20347;-87
2021/12/19 13:45:25;;;;;;;22.92;14.85;;;;;;;;;;4904099;29;20051;-87
2021/12/19 13:47:51;;;;;;;30.90;17.98;;;;;;;;;;4888558;29;20143;-87
2021/12/19 13:50:17;;;;;;;29.45;18.45;;;;;;;;;;4884710;29;20029;-88
2021/12/19 13:55:51;;;;;;;24.67;16.05;;;;;;;;;;4885500;29;20043;-86
2021/12/19 13:58:18;;;;;;;26.02;16.42;;;;;;;;;;4884990;29;20061;-87
2021/12/19 14:00:46;;;;;;;44.22;23.65;;;;;;;;;;4869612;29;20099;-86
2021/12/19 14:03:12;;;;;;;47.63;25.92;;;;;;;;;;4886510;29;20339;-86
2021/12/19 14:05:44;;;;;;;40.45;21.92;;;;;;;;;;4869380;29;20049;-87
2021/12/19 14:11:20;;;;;;;50.72;25.40;;;;;;;;;;4890855;29;20027;-87
2021/12/19 14:14:24;;;;;;;54.78;28.23;;;;;;;;;;4961939;29;20557;-86
2021/12/19 14:16:56;;;;;;;122.78;54.33;;;;;;;;;;4962110;29;20028;-86
2021/12/19 14:19:27;;;;;;;83.30;41.03;;;;;;;;;;4967507;28;20329;-86
2021/12/19 14:21:54;;;;;;;78.75;33.08;;;;;;;;;;4962380;29;20034;-86
2021/12/19 14:24:20;;;;;;;89.15;42.35;;;;;;;;;;4961977;29;20433;-86
2021/12/19 14:26:48;;;;;;;53.58;29.38;;;;;;;;;;4945065;29;20055;-86
2021/12/19 14:29:18;;;;;;;49.38;27.17;;;;;;;;;;4964017;28;20050;-87
2021/12/19 14:31:52;;;;;;;32.25;18.17;;;;;;;;;;4981049;28;20110;-86
2021/12/19 14:34:36;;;;;;;40.58;22.08;;;;;;;;;;4964070;28;20117;-87
2021/12/19 14:37:31;;;;;;;26.70;17.50;;;;;;;;;;4963946;28;20030;-87
2021/12/19 14:40:02;;;;;;;30.33;18.13;;;;;;;;;;4950772;28;20027;-87
2021/12/19 14:42:29;;;;;;;31.95;19.58;;;;;;;;;;4944976;29;20059;-86
2021/12/19 14:45:01;;;;;;;39.75;22.48;;;;;;;;;;4961789;29;20027;-86
2021/12/19 14:47:57;;;;;;;48.90;24.75;;;;;;;;;;4971506;28;20049;-88
2021/12/19 14:50:23;;;;;;;109.18;58.78;;;;;;;;;;4867810;29;20037;-84
2021/12/19 14:55:52;;;;;;;;;;;;;;;;;;4875788;29;20093;-86
2021/12/19 14:58:19;;;;;;;26.30;17.13;;;;;;;;;;4884121;29;20337;-86
2021/12/19 15:00:47;;;;;;;33.47;23.63;;;;;;;;;;4884154;29;20057;-86
2021/12/19 15:03:13;;;;;;;25.67;17.13;;;;;;;;;;4883845;29;20033;-86
2021/12/19 15:05:41;;;;;;;25.67;16.05;;;;;;;;;;4883772;29;20025;-86
2021/12/19 15:08:27;;;;;;;27.40;17.77;;;;;;;;;;4868512;29;20044;-86
2021/12/19 15:10:55;;;;;;;35.17;22.65;;;;;;;;;;4883498;29;20037;-86
2021/12/19 15:13:21;;;;;;;40.58;24.55;;;;;;;;;;4883946;29;20041;-86
2021/12/19 15:15:48;;;;;;;64.45;36.33;;;;;;;;;;4883481;29;20029;-86
2021/12/19 15:18:14;;;;;;;93.70;50.85;;;;;;;;;;4868261;29;20083;-86
2021/12/19 15:20:40;;;;;;;44.80;24.25;;;;;;;;;;4882299;29;20069;-86
2021/12/19 15:23:06;;;;;;;25.65;15.98;;;;;;;;;;4883427;29;20081;-86
2021/12/19 15:25:32;;;;;;;25.73;17.40;;;;;;;;;;4882259;29;20125;-86
2021/12/19 15:27:59;;;;;;;24.95;15.35;;;;;;;;;;4960954;29;20110;-86
2021/12/19 15:30:25;;;;;;;24.73;15.38;;;;;;;;;;4944048;29;20102;-87
2021/12/19 15:32:54;;;;;;;20.42;13.25;;;;;;;;;;4966631;28;20110;-87
2021/12/19 15:35:20;;;;;;;17.15;10.65;;;;;;;;;;4980170;28;20026;-85
2021/12/19 15:37:46;;;;;;;13.82;9.35;;;;;;;;;;4964465;28;20078;-86
2021/12/19 15:40:21;;;;;;;32.72;22.23;;;;;;;;;;4962763;28;20122;-86
2021/12/19 15:42:47;;;;;;;28.48;16.90;;;;;;;;;;4976880;28;20050;-85
2021/12/19 15:45:13;;;;;;;16.20;11.32;;;;;;;;;;4979553;28;20058;-85
2021/12/19 15:47:39;;;;;;;17.60;10.18;;;;;;;;;;4962273;28;20043;-85
2021/12/19 15:50:06;;;;;;;16.77;10.45;;;;;;;;;;4975868;28;20117;-86
2021/12/19 15:52:32;;;;;;;18.13;10.38;;;;;;;;;;4943502;28;20066;-85
2021/12/19 15:54:58;;;;;;;18.33;10.93;;;;;;;;;;4976484;28;20022;-86
2021/12/19 15:57:24;;;;;;;22.42;11.75;;;;;;;;;;4975795;28;20027;-85
2021/12/19 15:59:50;;;;;;;17.60;9.18;;;;;;;;;;4961538;28;20023;-86
2021/12/19 16:02:18;;;;;;;20.85;10.48;;;;;;;;;;4961611;28;20058;-85
2021/12/19 16:04:45;;;;;;;16.55;9.27;;;;;;;;;;4956028;28;20122;-86
2021/12/19 16:07:11;;;;;;;10.68;6.60;;;;;;;;;;4983247;28;20027;-85
2021/12/19 16:09:38;;;;;;;12.25;6.32;;;;;;;;;;4979586;28;20026;-86
2021/12/19 16:12:04;;;;;;;9.73;6.93;;;;;;;;;;4978948;28;20022;-86
2021/12/19 16:14:31;;;;;;;11.75;6.55;;;;;;;;;;4958860;29;20418;-86
2021/12/19 16:16:57;;;;;;;11.57;7.00;;;;;;;;;;4972338;28;20050;-85
2021/12/19 16:19:24;;;;;;;9.82;6.15;;;;;;;;;;4979315;28;20038;-89
2021/12/19 16:21:50;;;;;;;10.45;6.68;;;;;;;;;;4978919;28;20022;-86
2021/12/19 16:24:16;;;;;;;10.70;6.30;;;;;;;;;;4978894;28;20050;-86
2021/12/19 16:26:42;;;;;;;11.73;6.55;;;;;;;;;;4962069;28;20105;-86
2021/12/19 16:29:08;;;;;;;10.80;6.63;;;;;;;;;;4979000;28;20050;-85
2021/12/19 16:31:34;;;;;;;11.00;6.68;;;;;;;;;;4979088;28;20023;-86
2021/12/19 16:34:03;;;;;;;11.45;7.55;;;;;;;;;;4986291;28;20133;-86
2021/12/19 16:37:06;;;;;;;10.65;6.63;;;;;;;;;;4981131;28;20046;-86
2021/12/19 16:39:33;;;;;;;15.70;8.60;;;;;;;;;;4998375;28;20022;-85
2021/12/19 16:44:54;;;;;;;19.15;9.48;;;;;;;;;;4900812;29;20040;-85
2021/12/19 16:47:21;;;;;;;15.68;8.27;;;;;;;;;;4900607;29;20106;-85